createdAt,value
2022-12-01T00:00:01.783Z,79.00
2022-12-01T00:02:37.011Z,79.00
2022-12-01T00:05:06.002Z,79.00
2022-12-01T00:07:34.445Z,79.00
2022-12-01T00:10:23.275Z,79.10
2022-12-01T00:12:51.801Z,79.10
2022-12-01T00:15:20.535Z,79.10
2022-12-01T00:17:50.197Z,79.10
2022-12-01T00:20:19.228Z,79.00
2022-12-01T00:22:49.364Z,79.00
2022-12-01T00:25:20.722Z,79.10
2022-12-01T00:27:51.718Z,79.10
2022-12-01T00:30:21.712Z,79.00
2022-12-01T00:32:51.863Z,79.00
2022-12-01T00:35:20.433Z,79.00
2022-12-01T00:37:49.156Z,79.00
2022-12-01T00:40:19.083Z,79.00
2022-12-01T00:42:47.636Z,78.90
2022-12-01T00:45:16.072Z,78.90
2022-12-01T00:47:44.396Z,78.90
2022-12-01T00:50:13.451Z,79.00
2022-12-01T00:52:43.994Z,79.00
2022-12-01T00:55:14.342Z,79.00
2022-12-01T00:57:45.400Z,78.80
2022-12-01T01:00:17.158Z,78.80
2022-12-01T01:02:51.703Z,78.80
2022-12-01T01:05:22.416Z,78.90
2022-12-01T01:07:51.949Z,79.00
2022-12-01T01:10:20.524Z,78.90
2022-12-01T01:12:55.998Z,79.00
2022-12-01T01:15:24.555Z,79.10
2022-12-01T01:17:55.083Z,79.10
2022-12-01T01:20:23.443Z,79.00
2022-12-01T01:22:59.065Z,78.80
2022-12-01T01:25:34.302Z,78.90
2022-12-01T01:28:04.345Z,79.00
2022-12-01T01:30:32.837Z,79.00
2022-12-01T01:33:02.375Z,79.00
2022-12-01T01:35:31.115Z,79.00
2022-12-01T01:38:01.641Z,79.10
2022-12-01T01:40:30.212Z,79.60
2022-12-01T01:43:00.471Z,79.20
2022-12-01T01:45:31.490Z,79.20
2022-12-01T01:48:03.642Z,79.30
2022-12-01T01:50:34.025Z,79.30
2022-12-01T01:53:08.411Z,79.10
2022-12-01T01:55:37.797Z,79.00
2022-12-01T01:58:10.423Z,79.10
2022-12-01T02:00:44.659Z,79.10
2022-12-01T02:03:20.984Z,79.20
2022-12-01T02:05:50.854Z,79.10
2022-12-01T02:08:20.330Z,79.10
2022-12-01T02:11:12.479Z,79.20
2022-12-01T02:13:52.347Z,79.30
2022-12-01T02:16:31.560Z,79.30
2022-12-01T02:19:07.641Z,79.20
2022-12-01T02:21:50.040Z,79.30
2022-12-01T02:24:57.124Z,79.30
2022-12-01T02:27:52.691Z,79.40
2022-12-01T02:30:34.385Z,79.30
2022-12-01T02:33:11.519Z,79.30
2022-12-01T02:35:48.674Z,79.30
2022-12-01T02:38:25.494Z,79.30
2022-12-01T02:41:01.724Z,79.20
2022-12-01T02:43:36.249Z,79.20
2022-12-01T02:46:11.734Z,79.20
2022-12-01T02:48:42.977Z,79.20
2022-12-01T02:51:15.618Z,79.30
2022-12-01T02:53:45.434Z,79.50
2022-12-01T02:56:15.894Z,79.50
2022-12-01T02:58:45.163Z,79.60
2022-12-01T03:01:45.983Z,79.60
2022-12-01T03:04:32.761Z,79.70
2022-12-01T03:07:13.854Z,79.70
2022-12-01T03:09:50.903Z,79.70
2022-12-01T03:12:24.741Z,79.70
2022-12-01T03:15:01.592Z,79.70
2022-12-01T03:17:39.975Z,79.80
2022-12-01T03:20:15.970Z,80.00
2022-12-01T03:22:50.530Z,80.00
2022-12-01T03:25:21.202Z,80.10
2022-12-01T03:28:20.175Z,80.10
2022-12-01T03:30:46.330Z,80.00
2022-12-01T03:33:22.156Z,80.10
2022-12-01T03:35:54.608Z,80.10
2022-12-01T03:38:25.761Z,80.10
2022-12-01T03:40:59.898Z,80.20
2022-12-01T03:43:33.833Z,80.30
2022-12-01T03:46:09.475Z,80.20
2022-12-01T03:48:40.393Z,81.00
2022-12-01T03:51:15.106Z,80.40
2022-12-01T03:53:57.178Z,80.20
2022-12-01T03:56:30.569Z,80.20
2022-12-01T03:59:03.903Z,80.30
2022-12-01T04:01:33.473Z,80.40
2022-12-01T04:04:07.499Z,80.50
2022-12-01T04:06:37.163Z,80.40
2022-12-01T04:09:05.648Z,80.50
2022-12-01T04:11:51.387Z,80.60
2022-12-01T04:14:19.776Z,80.70
2022-12-01T04:16:48.513Z,80.70
2022-12-01T04:19:19.192Z,80.80
2022-12-01T04:21:48.542Z,80.80
2022-12-01T04:24:17.156Z,80.90
2022-12-01T04:26:47.076Z,81.00
2022-12-01T04:29:15.784Z,80.90
2022-12-01T04:31:45.161Z,81.00
2022-12-01T04:34:13.668Z,81.00
2022-12-01T04:36:43.392Z,81.00
2022-12-01T04:39:11.625Z,81.00
2022-12-01T04:41:40.871Z,80.90
2022-12-01T04:44:11.025Z,81.00
2022-12-01T04:46:40.382Z,81.20
2022-12-01T04:49:08.754Z,81.30
2022-12-01T04:51:37.539Z,81.20
2022-12-01T04:54:07.286Z,81.20
2022-12-01T04:56:35.679Z,81.20
2022-12-01T04:59:04.326Z,81.30
2022-12-01T05:01:33.046Z,81.30
2022-12-01T05:04:01.489Z,81.30
2022-12-01T05:06:30.522Z,81.20
2022-12-01T05:09:00.842Z,81.30
2022-12-01T05:11:31.783Z,81.20
2022-12-01T05:14:05.170Z,81.30
2022-12-01T05:16:35.526Z,81.30
2022-12-01T05:19:23.168Z,81.70
2022-12-01T05:21:53.996Z,81.20
2022-12-01T05:24:22.795Z,81.20
2022-12-01T05:26:53.433Z,81.20
2022-12-01T05:29:24.142Z,81.30
2022-12-01T05:31:53.462Z,81.40
2022-12-01T05:34:23.866Z,81.50
2022-12-01T05:36:55.166Z,81.40
2022-12-01T05:39:24.590Z,81.30
2022-12-01T05:41:54.453Z,81.30
2022-12-01T05:44:22.780Z,81.30
2022-12-01T05:46:58.367Z,81.30
2022-12-01T05:49:26.768Z,81.30
2022-12-01T05:51:56.224Z,81.10
2022-12-01T05:54:24.503Z,80.90
2022-12-01T05:56:54.229Z,81.00
2022-12-01T05:59:23.624Z,80.90
2022-12-01T06:01:55.171Z,80.90
2022-12-01T06:04:25.226Z,80.70
2022-12-01T06:06:55.670Z,81.40
2022-12-01T06:09:25.192Z,80.70
2022-12-01T06:11:57.507Z,80.60
2022-12-01T06:14:25.890Z,80.50
2022-12-01T06:16:54.182Z,80.40
2022-12-01T06:19:23.689Z,80.40
2022-12-01T06:21:53.965Z,80.40
2022-12-01T06:24:22.314Z,80.40
2022-12-01T06:26:50.908Z,80.50
2022-12-01T06:29:21.855Z,80.30
2022-12-01T06:31:50.130Z,80.30
2022-12-01T06:34:19.592Z,80.10
2022-12-01T06:36:49.066Z,79.90
2022-12-01T06:39:19.175Z,79.90
2022-12-01T06:41:47.829Z,79.80
2022-12-01T06:44:16.174Z,79.90
2022-12-01T06:46:45.904Z,79.70
2022-12-01T06:49:14.643Z,79.80
2022-12-01T06:51:43.917Z,79.70
2022-12-01T06:54:12.621Z,79.60
2022-12-01T06:56:42.845Z,79.70
2022-12-01T06:59:11.712Z,79.60
2022-12-01T07:01:40.300Z,79.50
2022-12-01T07:04:10.094Z,79.50
2022-12-01T07:06:38.420Z,79.40
2022-12-01T07:09:07.725Z,79.30
2022-12-01T07:11:36.886Z,79.20
2022-12-01T07:14:05.217Z,79.10
2022-12-01T07:16:33.799Z,79.10
2022-12-01T07:19:02.012Z,78.90
2022-12-01T07:21:32.717Z,78.80
2022-12-01T07:24:01.970Z,78.60
2022-12-01T07:26:30.301Z,78.80
2022-12-01T07:28:58.545Z,78.90
2022-12-01T07:31:27.018Z,78.80
2022-12-01T07:33:56.355Z,78.80
2022-12-01T07:36:26.111Z,78.80
2022-12-01T07:38:55.685Z,78.80
2022-12-01T07:41:24.443Z,78.80
2022-12-01T07:43:54.126Z,78.80
2022-12-01T07:46:26.505Z,78.70
2022-12-01T07:48:55.641Z,78.80
2022-12-01T07:51:25.402Z,78.70
2022-12-01T07:53:56.256Z,78.60
2022-12-01T07:56:24.922Z,78.40
2022-12-01T07:58:53.509Z,78.50
2022-12-01T08:01:23.328Z,78.60
2022-12-01T08:03:53.054Z,78.60
2022-12-01T08:06:22.363Z,78.70
2022-12-01T08:08:52.381Z,78.70
2022-12-01T08:11:24.767Z,78.70
2022-12-01T08:13:54.010Z,78.50
2022-12-01T08:16:25.457Z,78.60
2022-12-01T08:18:54.978Z,78.70
2022-12-01T08:21:25.043Z,78.70
2022-12-01T08:23:56.291Z,78.60
2022-12-01T08:26:27.905Z,78.60
2022-12-01T08:28:56.491Z,78.50
2022-12-01T08:31:27.110Z,78.50
2022-12-01T08:33:55.989Z,78.50
2022-12-01T08:36:25.360Z,78.50
2022-12-01T08:38:55.844Z,78.40
2022-12-01T08:41:28.453Z,78.30
2022-12-01T08:43:59.837Z,78.20
2022-12-01T08:46:30.384Z,78.20
2022-12-01T08:48:58.724Z,78.30
2022-12-01T08:51:27.779Z,78.50
2022-12-01T08:53:57.355Z,78.40
2022-12-01T08:56:33.741Z,78.20
2022-12-01T08:59:02.182Z,78.00
2022-12-01T09:01:30.724Z,77.90
2022-12-01T09:04:07.633Z,77.80
2022-12-01T09:06:40.681Z,77.70
2022-12-01T09:09:09.778Z,77.60
2022-12-01T09:11:41.210Z,77.40
2022-12-01T09:14:09.465Z,77.20
2022-12-01T09:16:38.929Z,77.10
2022-12-01T09:19:08.378Z,77.00
2022-12-01T09:21:45.225Z,76.90
2022-12-01T09:24:14.969Z,76.80
2022-12-01T09:26:44.702Z,76.60
2022-12-01T09:29:17.171Z,76.70
2022-12-01T09:31:48.869Z,76.70
2022-12-01T09:34:20.843Z,76.70
2022-12-01T09:36:50.249Z,76.70
2022-12-01T09:39:21.603Z,76.70
2022-12-01T09:41:59.104Z,76.60
2022-12-01T09:44:35.185Z,76.60
2022-12-01T09:47:10.353Z,76.60
2022-12-01T09:49:48.585Z,76.60
2022-12-01T09:52:21.939Z,76.70
2022-12-01T09:54:59.145Z,76.70
2022-12-01T09:57:33.711Z,76.60
2022-12-01T10:00:05.959Z,76.50
2022-12-01T10:02:41.047Z,76.30
2022-12-01T10:05:15.498Z,76.50
2022-12-01T10:07:48.341Z,76.30
2022-12-01T10:10:27.385Z,76.20
2022-12-01T10:12:58.727Z,76.10
2022-12-01T10:15:43.457Z,76.80
2022-12-01T10:18:31.365Z,76.00
2022-12-01T10:21:08.663Z,75.90
2022-12-01T10:23:57.704Z,75.80
2022-12-01T10:26:33.067Z,75.90
2022-12-01T10:29:24.475Z,75.90
2022-12-01T10:31:57.752Z,75.80
2022-12-01T10:34:29.672Z,75.80
2022-12-01T10:36:59.135Z,75.60
2022-12-01T10:39:32.414Z,75.50
2022-12-01T10:42:06.335Z,75.40
2022-12-01T10:44:38.156Z,75.30
2022-12-01T10:47:18.163Z,75.20
2022-12-01T10:49:46.695Z,75.10
2022-12-01T10:52:33.328Z,75.10
2022-12-01T10:55:06.538Z,74.90
2022-12-01T10:57:34.923Z,74.90
2022-12-01T11:00:09.322Z,74.70
2022-12-01T11:02:37.839Z,74.40
2022-12-01T11:05:08.542Z,74.20
2022-12-01T11:07:44.082Z,73.90
2022-12-01T11:10:18.798Z,73.60
2022-12-01T11:12:56.380Z,73.60
2022-12-01T11:15:28.570Z,73.50
2022-12-01T11:18:01.356Z,73.10
2022-12-01T11:20:33.345Z,72.90
2022-12-01T11:23:25.362Z,72.80
2022-12-01T11:26:00.952Z,72.50
2022-12-01T11:28:30.082Z,72.60
2022-12-01T11:31:05.575Z,72.60
2022-12-01T11:33:40.665Z,72.40
2022-12-01T11:36:15.946Z,72.40
2022-12-01T11:38:44.799Z,72.30
2022-12-01T11:41:28.032Z,72.00
2022-12-01T11:44:01.750Z,71.60
2022-12-01T11:46:35.049Z,71.50
2022-12-01T11:49:04.873Z,71.40
2022-12-01T11:51:37.609Z,71.30
2022-12-01T11:54:12.267Z,71.00
2022-12-01T11:56:42.267Z,70.90
2022-12-01T11:59:15.438Z,70.80
2022-12-01T12:02:07.571Z,70.60
2022-12-01T12:04:57.307Z,70.60
2022-12-01T12:07:37.077Z,70.60
2022-12-01T12:10:29.291Z,70.50
2022-12-01T12:13:23.090Z,70.60
2022-12-01T12:16:04.624Z,70.60
2022-12-01T12:18:50.734Z,70.50
2022-12-01T12:21:30.662Z,70.30
2022-12-01T12:24:15.682Z,70.40
2022-12-01T12:26:53.039Z,70.20
2022-12-01T12:29:34.185Z,69.90
2022-12-01T12:32:17.551Z,69.40
2022-12-01T12:34:57.303Z,68.90
2022-12-01T12:37:38.051Z,69.30
2022-12-01T12:40:27.587Z,68.40
2022-12-01T12:43:06.758Z,68.00
2022-12-01T12:45:49.954Z,67.90
2022-12-01T12:48:28.104Z,67.60
2022-12-01T12:51:09.383Z,67.60
2022-12-01T12:53:44.438Z,67.50
2022-12-01T12:56:16.463Z,67.40
2022-12-01T12:59:02.814Z,67.10
2022-12-01T13:01:36.831Z,66.90
2022-12-01T13:04:08.674Z,67.00
2022-12-01T13:06:42.803Z,66.90
2022-12-01T13:09:16.495Z,66.80
2022-12-01T13:11:52.782Z,66.70
2022-12-01T13:14:27.263Z,66.60
2022-12-01T13:17:00.527Z,66.60
2022-12-01T13:19:33.129Z,66.50
2022-12-01T13:22:05.489Z,66.40
2022-12-01T13:24:34.273Z,66.30
2022-12-01T13:27:07.036Z,66.60
2022-12-01T13:29:47.622Z,66.70
2022-12-01T13:32:33.820Z,66.60
2022-12-01T13:35:07.051Z,66.60
2022-12-01T13:37:39.299Z,66.60
2022-12-01T13:40:20.563Z,66.30
2022-12-01T13:42:58.301Z,66.10
2022-12-01T13:45:26.536Z,66.00
2022-12-01T13:47:56.902Z,65.90
2022-12-01T13:51:03.910Z,65.80
2022-12-01T13:53:36.017Z,65.40
2022-12-01T13:56:27.264Z,65.50
2022-12-01T13:58:56.965Z,65.20
2022-12-01T14:01:48.374Z,65.30
2022-12-01T14:04:33.850Z,65.10
2022-12-01T14:07:36.487Z,65.20
2022-12-01T14:10:24.253Z,64.90
2022-12-01T14:12:55.339Z,64.90
2022-12-01T14:15:34.036Z,64.80
2022-12-01T14:18:06.506Z,64.60
2022-12-01T14:20:45.936Z,64.60
2022-12-01T14:23:19.015Z,64.60
2022-12-01T14:26:04.781Z,64.60
2022-12-01T14:29:11.724Z,64.40
2022-12-01T14:32:25.817Z,64.60
2022-12-01T14:35:04.922Z,64.60
2022-12-01T14:37:49.791Z,64.70
2022-12-01T14:40:29.617Z,64.70
2022-12-01T14:43:19.882Z,64.70
2022-12-01T14:46:02.516Z,64.70
2022-12-01T14:48:38.736Z,64.60
2022-12-01T14:51:17.398Z,64.60
2022-12-01T14:53:53.156Z,64.60
2022-12-01T14:56:25.087Z,64.50
2022-12-01T14:58:59.202Z,64.40
2022-12-01T15:01:33.348Z,64.20
2022-12-01T15:04:04.775Z,64.10
2022-12-01T15:06:35.754Z,64.10
2022-12-01T15:09:32.675Z,64.00
2022-12-01T15:12:00.737Z,64.10
2022-12-01T15:14:35.316Z,64.30
2022-12-01T15:17:08.762Z,64.20
2022-12-01T15:19:39.886Z,64.30
2022-12-01T15:22:15.705Z,64.30
2022-12-01T15:24:46.556Z,64.30
2022-12-01T15:27:26.993Z,64.30
2022-12-01T15:29:58.193Z,64.10
2022-12-01T15:32:27.849Z,64.10
2022-12-01T15:35:01.554Z,64.00
2022-12-01T15:37:36.158Z,63.80
2022-12-01T15:40:54.457Z,64.10
2022-12-01T15:43:15.403Z,63.90
2022-12-01T15:45:51.781Z,63.70
2022-12-01T15:48:28.375Z,63.50
2022-12-01T15:51:10.342Z,63.10
2022-12-01T15:53:42.612Z,62.70
2022-12-01T15:56:13.269Z,62.70
2022-12-01T15:58:47.653Z,62.50
2022-12-01T16:01:19.464Z,62.40
2022-12-01T16:03:57.207Z,62.40
2022-12-01T16:06:35.270Z,62.10
2022-12-01T16:09:07.585Z,62.20
2022-12-01T16:11:36.205Z,62.10
2022-12-01T16:14:08.129Z,62.20
2022-12-01T16:16:43.318Z,62.10
2022-12-01T16:19:33.649Z,62.00
2022-12-01T16:22:13.743Z,61.90
2022-12-01T16:24:47.435Z,62.00
2022-12-01T16:27:23.325Z,61.90
2022-12-01T16:30:01.000Z,61.80
2022-12-01T16:33:01.988Z,61.90
2022-12-01T16:35:43.108Z,61.90
2022-12-01T16:38:22.450Z,62.00
2022-12-01T16:40:53.676Z,62.10
2022-12-01T16:43:24.046Z,62.00
2022-12-01T16:46:00.462Z,62.00
2022-12-01T16:48:30.320Z,62.00
2022-12-01T16:51:04.454Z,62.00
2022-12-01T16:53:32.947Z,62.10
2022-12-01T16:56:03.471Z,62.20
2022-12-01T16:58:31.846Z,62.30
2022-12-01T17:01:00.636Z,62.40
2022-12-01T17:03:31.319Z,62.30
2022-12-01T17:06:01.755Z,62.40
2022-12-01T17:08:30.445Z,62.50
2022-12-01T17:10:59.062Z,62.50
2022-12-01T17:13:28.826Z,62.50
2022-12-01T17:15:59.568Z,62.40
2022-12-01T17:18:32.860Z,62.50
2022-12-01T17:21:02.958Z,62.40
2022-12-01T17:23:32.687Z,62.50
2022-12-01T17:26:01.641Z,62.50
2022-12-01T17:28:29.944Z,62.70
2022-12-01T17:31:01.228Z,62.60
2022-12-01T17:33:29.526Z,62.70
2022-12-01T17:36:02.835Z,62.70
2022-12-01T17:38:35.071Z,62.60
2022-12-01T17:41:06.165Z,62.50
2022-12-01T17:43:36.111Z,62.60
2022-12-01T17:46:06.818Z,62.70
2022-12-01T17:48:37.414Z,62.70
2022-12-01T17:51:09.288Z,62.70
2022-12-01T17:53:39.337Z,62.80
2022-12-01T17:56:09.180Z,62.90
2022-12-01T17:58:38.568Z,63.00
2022-12-01T18:01:13.347Z,62.90
2022-12-01T18:03:42.818Z,62.90
2022-12-01T18:06:13.130Z,63.00
2022-12-01T18:08:43.114Z,63.00
2022-12-01T18:11:17.305Z,63.00
2022-12-01T18:13:49.772Z,63.10
2022-12-01T18:16:21.203Z,63.70
2022-12-01T18:18:49.960Z,63.10
2022-12-01T18:21:23.579Z,63.10
2022-12-01T18:23:52.977Z,63.20
2022-12-01T18:26:22.457Z,63.30
2022-12-01T18:28:55.946Z,63.40
2022-12-01T18:31:26.326Z,63.50
2022-12-01T18:33:58.383Z,63.50
2022-12-01T18:36:28.271Z,63.50
2022-12-01T18:39:00.025Z,63.60
2022-12-01T18:41:30.237Z,63.70
2022-12-01T18:43:58.596Z,63.70
2022-12-01T18:46:33.019Z,63.80
2022-12-01T18:49:02.747Z,63.90
2022-12-01T18:51:35.259Z,63.90
2022-12-01T18:54:05.180Z,63.90
2022-12-01T18:56:34.000Z,63.80
2022-12-01T18:59:06.229Z,63.90
2022-12-01T19:01:37.416Z,63.80
2022-12-01T19:04:07.547Z,63.80
2022-12-01T19:06:39.558Z,63.80
2022-12-01T19:09:10.636Z,63.90
2022-12-01T19:11:41.471Z,63.90
2022-12-01T19:14:13.165Z,63.70
2022-12-01T19:16:41.972Z,63.70
2022-12-01T19:19:11.188Z,63.80
2022-12-01T19:21:41.029Z,63.80
2022-12-01T19:24:11.401Z,64.10
2022-12-01T19:26:39.872Z,63.80
2022-12-01T19:29:08.382Z,63.80
2022-12-01T19:31:37.455Z,63.70
2022-12-01T19:34:08.262Z,63.80
2022-12-01T19:36:37.614Z,63.70
2022-12-01T19:39:07.944Z,63.70
2022-12-01T19:41:36.631Z,63.70
2022-12-01T19:44:08.410Z,63.70
2022-12-01T19:46:37.319Z,63.60
2022-12-01T19:49:06.973Z,63.60
2022-12-01T19:51:37.705Z,63.30
2022-12-01T19:54:11.598Z,63.30
2022-12-01T19:56:41.913Z,63.30
2022-12-01T19:59:11.634Z,63.20
2022-12-01T20:01:40.316Z,63.30
2022-12-01T20:04:09.009Z,63.20
2022-12-01T20:06:39.233Z,63.20
2022-12-01T20:09:11.698Z,63.00
2022-12-01T20:11:40.168Z,63.00
2022-12-01T20:14:08.652Z,63.00
2022-12-01T20:16:41.645Z,63.00
2022-12-01T20:19:18.295Z,63.00
2022-12-01T20:21:46.586Z,63.00
2022-12-01T20:24:18.585Z,62.90
2022-12-01T20:26:50.729Z,62.80
2022-12-01T20:29:21.833Z,62.80
2022-12-01T20:31:52.325Z,62.70
2022-12-01T20:34:25.394Z,62.70
2022-12-01T20:36:54.369Z,62.60
2022-12-01T20:39:24.413Z,62.50
2022-12-01T20:41:53.941Z,62.50
2022-12-01T20:44:23.415Z,62.50
2022-12-01T20:46:54.968Z,62.40
2022-12-01T20:49:23.653Z,62.20
2022-12-01T20:51:53.192Z,62.40
2022-12-01T20:54:28.812Z,62.50
2022-12-01T20:56:58.466Z,62.60
2022-12-01T20:59:27.812Z,62.60
2022-12-01T21:01:56.487Z,62.70
2022-12-01T21:04:24.922Z,62.70
2022-12-01T21:06:59.676Z,62.70
2022-12-01T21:09:29.801Z,62.60
2022-12-01T21:12:18.083Z,62.60
2022-12-01T21:14:54.684Z,62.70
2022-12-01T21:17:32.994Z,62.60
2022-12-01T21:20:11.614Z,62.60
2022-12-01T21:22:46.885Z,62.70
2022-12-01T21:25:20.400Z,62.70
2022-12-01T21:27:50.366Z,62.70
2022-12-01T21:30:20.825Z,63.10
2022-12-01T21:32:50.948Z,62.70
2022-12-01T21:35:22.020Z,62.70
2022-12-01T21:37:55.395Z,62.70
2022-12-01T21:40:26.875Z,62.70
2022-12-01T21:42:56.893Z,62.70
2022-12-01T21:45:29.168Z,62.80
2022-12-01T21:48:02.497Z,62.80
2022-12-01T21:50:32.755Z,62.70
2022-12-01T21:53:01.227Z,62.80
2022-12-01T21:55:36.105Z,62.80
2022-12-01T21:58:21.020Z,63.00
2022-12-01T22:00:52.300Z,62.90
2022-12-01T22:03:30.250Z,62.90
2022-12-01T22:06:28.202Z,63.00
2022-12-01T22:08:52.937Z,63.00
2022-12-01T22:11:24.173Z,63.00
2022-12-01T22:13:56.524Z,63.00
2022-12-01T22:16:30.797Z,63.00
2022-12-01T22:19:01.976Z,63.00
2022-12-01T22:21:38.034Z,63.10
2022-12-01T22:24:22.799Z,63.10
2022-12-01T22:27:01.125Z,63.10
2022-12-01T22:29:31.308Z,62.90
2022-12-01T22:32:41.311Z,63.00
2022-12-01T22:35:27.096Z,63.10
2022-12-01T22:38:00.142Z,63.10
2022-12-01T22:40:33.808Z,63.10
2022-12-01T22:43:35.217Z,63.20
2022-12-01T22:46:16.347Z,63.10
2022-12-01T22:48:46.882Z,63.00
2022-12-01T22:51:38.387Z,63.00
2022-12-01T22:54:27.402Z,63.00
2022-12-01T22:57:12.193Z,62.90
2022-12-01T22:59:44.146Z,62.90
2022-12-01T23:02:21.218Z,63.10
2022-12-01T23:04:52.892Z,63.10
2022-12-01T23:07:32.151Z,63.00
2022-12-01T23:10:12.874Z,63.00
2022-12-01T23:12:42.341Z,63.00
2022-12-01T23:15:31.133Z,63.10
2022-12-01T23:18:03.647Z,63.20
2022-12-01T23:20:34.414Z,63.20
2022-12-01T23:23:06.129Z,63.30
2022-12-01T23:25:37.078Z,63.10
2022-12-01T23:28:08.499Z,63.20
2022-12-01T23:30:42.302Z,63.30
2022-12-01T23:33:20.690Z,63.30
2022-12-01T23:35:54.894Z,63.30
2022-12-01T23:38:26.234Z,63.30
2022-12-01T23:40:59.572Z,63.20
2022-12-01T23:43:33.641Z,63.40
2022-12-01T23:46:09.636Z,63.40
2022-12-01T23:48:41.426Z,63.40
2022-12-01T23:51:17.374Z,63.50
2022-12-01T23:53:48.002Z,63.60
2022-12-01T23:56:20.837Z,63.50
2022-12-01T23:58:50.964Z,63.50
